sensor_id;sensor_type;location;lat;lon;timestamp;P1;durP1;ratioP1;P2;durP2;ratioP2
5801;SDS011;2927;49.366;8.530;2022-12-29T00:01:20;1.40;;;1.30;;
5801;SDS011;2927;49.366;8.530;2022-12-29T00:03:46;1.43;;;1.30;;
5801;SDS011;2927;49.366;8.530;2022-12-29T00:06:11;2.60;;;1.60;;
5801;SDS011;2927;49.366;8.530;2022-12-29T00:08:37;7.37;;;1.97;;
5801;SDS011;2927;49.366;8.530;2022-12-29T00:11:10;5.00;;;1.80;;
5801;SDS011;2927;49.366;8.530;2022-12-29T00:13:37;8.87;;;1.80;;
5801;SDS011;2927;49.366;8.530;2022-12-29T00:16:22;1.63;;;1.50;;
5801;SDS011;2927;49.366;8.530;2022-12-29T00:18:48;1.70;;;1.60;;
5801;SDS011;2927;49.366;8.530;2022-12-29T00:21:15;2.27;;;1.67;;
5801;SDS011;2927;49.366;8.530;2022-12-29T00:24:01;4.10;;;1.43;;
5801;SDS011;2927;49.366;8.530;2022-12-29T00:26:47;1.40;;;1.30;;
5801;SDS011;2927;49.366;8.530;2022-12-29T00:29:43;2.37;;;1.57;;
5801;SDS011;2927;49.366;8.530;2022-12-29T00:32:28;3.50;;;1.23;;
5801;SDS011;2927;49.366;8.530;2022-12-29T00:35:13;5.63;;;1.10;;
5801;SDS011;2927;49.366;8.530;2022-12-29T00:37:46;3.23;;;2.67;;
5801;SDS011;2927;49.366;8.530;2022-12-29T00:40:31;3.47;;;1.80;;
5801;SDS011;2927;49.366;8.530;2022-12-29T00:43:15;5.10;;;1.87;;
5801;SDS011;2927;49.366;8.530;2022-12-29T00:46:00;3.37;;;1.67;;
5801;SDS011;2927;49.366;8.530;2022-12-29T00:48:25;12.03;;;1.80;;
5801;SDS011;2927;49.366;8.530;2022-12-29T00:51:09;3.23;;;1.70;;
5801;SDS011;2927;49.366;8.530;2022-12-29T00:53:35;3.33;;;1.93;;
5801;SDS011;2927;49.366;8.530;2022-12-29T00:56:00;2.60;;;1.73;;
5801;SDS011;2927;49.366;8.530;2022-12-29T00:58:27;3.00;;;1.30;;
5801;SDS011;2927;49.366;8.530;2022-12-29T01:01:00;1.70;;;1.50;;
5801;SDS011;2927;49.366;8.530;2022-12-29T01:03:28;2.77;;;2.03;;
5801;SDS011;2927;49.366;8.530;2022-12-29T01:05:53;2.33;;;1.60;;
5801;SDS011;2927;49.366;8.530;2022-12-29T01:08:19;3.83;;;1.37;;
5801;SDS011;2927;49.366;8.530;2022-12-29T01:10:44;6.10;;;1.20;;
5801;SDS011;2927;49.366;8.530;2022-12-29T01:13:10;1.80;;;1.10;;
5801;SDS011;2927;49.366;8.530;2022-12-29T01:15:35;1.27;;;1.17;;
5801;SDS011;2927;49.366;8.530;2022-12-29T01:20:36;2.20;;;0.73;;
5801;SDS011;2927;49.366;8.530;2022-12-29T01:23:02;1.10;;;0.83;;
5801;SDS011;2927;49.366;8.530;2022-12-29T01:25:37;2.77;;;0.70;;
5801;SDS011;2927;49.366;8.530;2022-12-29T01:30:38;3.37;;;1.10;;
5801;SDS011;2927;49.366;8.530;2022-12-29T01:33:04;1.13;;;0.83;;
5801;SDS011;2927;49.366;8.530;2022-12-29T01:35:29;3.27;;;0.90;;
5801;SDS011;2927;49.366;8.530;2022-12-29T01:37:55;1.27;;;0.60;;
5801;SDS011;2927;49.366;8.530;2022-12-29T01:40:21;0.73;;;0.70;;
5801;SDS011;2927;49.366;8.530;2022-12-29T01:42:46;4.47;;;1.00;;
5801;SDS011;2927;49.366;8.530;2022-12-29T01:45:13;30.77;;;1.43;;
5801;SDS011;2927;49.366;8.530;2022-12-29T01:53:22;3.90;;;1.03;;
5801;SDS011;2927;49.366;8.530;2022-12-29T01:55:54;2.40;;;0.97;;
5801;SDS011;2927;49.366;8.530;2022-12-29T01:58:22;2.00;;;0.87;;
5801;SDS011;2927;49.366;8.530;2022-12-29T02:00:53;3.63;;;1.03;;
5801;SDS011;2927;49.366;8.530;2022-12-29T02:08:26;1.63;;;0.93;;
5801;SDS011;2927;49.366;8.530;2022-12-29T02:10:54;0.80;;;0.80;;
5801;SDS011;2927;49.366;8.530;2022-12-29T02:13:24;5.27;;;0.80;;
5801;SDS011;2927;49.366;8.530;2022-12-29T02:18:51;1.30;;;0.73;;
5801;SDS011;2927;49.366;8.530;2022-12-29T02:27:36;1.80;;;1.00;;
5801;SDS011;2927;49.366;8.530;2022-12-29T02:33:30;1.13;;;0.73;;
5801;SDS011;2927;49.366;8.530;2022-12-29T02:44:12;0.97;;;0.97;;
5801;SDS011;2927;49.366;8.530;2022-12-29T02:47:14;2.20;;;0.73;;
5801;SDS011;2927;49.366;8.530;2022-12-29T02:50:09;1.17;;;0.63;;
5801;SDS011;2927;49.366;8.530;2022-12-29T02:52:43;3.30;;;0.60;;
5801;SDS011;2927;49.366;8.530;2022-12-29T02:55:16;0.93;;;0.77;;
5801;SDS011;2927;49.366;8.530;2022-12-29T02:57:42;1.03;;;0.83;;
5801;SDS011;2927;49.366;8.530;2022-12-29T03:00:09;1.07;;;0.70;;
5801;SDS011;2927;49.366;8.530;2022-12-29T03:08:30;2.30;;;0.80;;
5801;SDS011;2927;49.366;8.530;2022-12-29T03:11:14;0.70;;;0.53;;
5801;SDS011;2927;49.366;8.530;2022-12-29T03:14:02;1.07;;;0.90;;
5801;SDS011;2927;49.366;8.530;2022-12-29T03:19:37;2.30;;;0.80;;
5801;SDS011;2927;49.366;8.530;2022-12-29T03:22:12;2.20;;;0.90;;
5801;SDS011;2927;49.366;8.530;2022-12-29T03:24:52;1.27;;;1.00;;
5801;SDS011;2927;49.366;8.530;2022-12-29T03:27:32;1.37;;;1.00;;
5801;SDS011;2927;49.366;8.530;2022-12-29T03:30:05;1.33;;;1.23;;
5801;SDS011;2927;49.366;8.530;2022-12-29T03:32:33;9.33;;;1.00;;
5801;SDS011;2927;49.366;8.530;2022-12-29T03:35:02;2.33;;;0.90;;
5801;SDS011;2927;49.366;8.530;2022-12-29T03:37:30;0.97;;;0.50;;
5801;SDS011;2927;49.366;8.530;2022-12-29T03:40:13;2.40;;;1.20;;
5801;SDS011;2927;49.366;8.530;2022-12-29T03:42:39;2.43;;;1.07;;
5801;SDS011;2927;49.366;8.530;2022-12-29T03:45:06;1.67;;;1.20;;
5801;SDS011;2927;49.366;8.530;2022-12-29T03:50:08;3.50;;;0.90;;
5801;SDS011;2927;49.366;8.530;2022-12-29T03:52:36;4.43;;;1.10;;
5801;SDS011;2927;49.366;8.530;2022-12-29T03:55:02;4.00;;;1.00;;
5801;SDS011;2927;49.366;8.530;2022-12-29T03:57:27;0.83;;;0.70;;
5801;SDS011;2927;49.366;8.530;2022-12-29T03:59:53;1.10;;;0.63;;
5801;SDS011;2927;49.366;8.530;2022-12-29T04:02:18;0.90;;;0.77;;
5801;SDS011;2927;49.366;8.530;2022-12-29T04:04:44;1.63;;;0.90;;
5801;SDS011;2927;49.366;8.530;2022-12-29T04:07:10;1.87;;;0.67;;
5801;SDS011;2927;49.366;8.530;2022-12-29T04:09:36;2.17;;;0.80;;
5801;SDS011;2927;49.366;8.530;2022-12-29T04:12:01;2.50;;;0.83;;
5801;SDS011;2927;49.366;8.530;2022-12-29T04:14:27;1.07;;;0.83;;
5801;SDS011;2927;49.366;8.530;2022-12-29T04:22:04;1.17;;;1.07;;
5801;SDS011;2927;49.366;8.530;2022-12-29T04:24:30;1.43;;;0.80;;
5801;SDS011;2927;49.366;8.530;2022-12-29T04:26:56;1.10;;;1.00;;
5801;SDS011;2927;49.366;8.530;2022-12-29T04:29:21;1.37;;;0.60;;
5801;SDS011;2927;49.366;8.530;2022-12-29T04:31:47;1.43;;;0.93;;
5801;SDS011;2927;49.366;8.530;2022-12-29T04:34:12;1.47;;;0.80;;
5801;SDS011;2927;49.366;8.530;2022-12-29T04:36:38;1.97;;;0.80;;
5801;SDS011;2927;49.366;8.530;2022-12-29T04:39:04;0.60;;;0.60;;
5801;SDS011;2927;49.366;8.530;2022-12-29T04:41:31;0.83;;;0.60;;
5801;SDS011;2927;49.366;8.530;2022-12-29T04:43:57;2.70;;;0.97;;
5801;SDS011;2927;49.366;8.530;2022-12-29T04:46:22;1.33;;;0.90;;
5801;SDS011;2927;49.366;8.530;2022-12-29T04:48:48;1.00;;;0.87;;
5801;SDS011;2927;49.366;8.530;2022-12-29T04:51:13;1.60;;;0.70;;
5801;SDS011;2927;49.366;8.530;2022-12-29T04:53:39;3.20;;;0.57;;
5801;SDS011;2927;49.366;8.530;2022-12-29T04:56:04;0.80;;;0.60;;
5801;SDS011;2927;49.366;8.530;2022-12-29T04:58:30;1.03;;;0.83;;
5801;SDS011;2927;49.366;8.530;2022-12-29T05:00:56;3.43;;;0.80;;
5801;SDS011;2927;49.366;8.530;2022-12-29T05:03:21;4.10;;;0.70;;
5801;SDS011;2927;49.366;8.530;2022-12-29T05:05:47;2.73;;;0.80;;
5801;SDS011;2927;49.366;8.530;2022-12-29T05:08:12;0.93;;;0.93;;
5801;SDS011;2927;49.366;8.530;2022-12-29T05:10:38;0.50;;;0.50;;
5801;SDS011;2927;49.366;8.530;2022-12-29T05:13:03;1.67;;;1.00;;
5801;SDS011;2927;49.366;8.530;2022-12-29T05:15:29;1.80;;;0.77;;
5801;SDS011;2927;49.366;8.530;2022-12-29T05:17:54;1.90;;;0.90;;
5801;SDS011;2927;49.366;8.530;2022-12-29T05:20:20;0.70;;;0.70;;
5801;SDS011;2927;49.366;8.530;2022-12-29T05:22:46;0.60;;;0.50;;
5801;SDS011;2927;49.366;8.530;2022-12-29T05:25:11;0.73;;;0.73;;
5801;SDS011;2927;49.366;8.530;2022-12-29T05:27:37;1.27;;;0.70;;
5801;SDS011;2927;49.366;8.530;2022-12-29T05:30:02;1.00;;;0.90;;
5801;SDS011;2927;49.366;8.530;2022-12-29T05:32:28;0.60;;;0.60;;
5801;SDS011;2927;49.366;8.530;2022-12-29T05:34:54;1.17;;;0.70;;
5801;SDS011;2927;49.366;8.530;2022-12-29T05:37:19;1.20;;;0.90;;
5801;SDS011;2927;49.366;8.530;2022-12-29T05:39:45;3.47;;;0.70;;
5801;SDS011;2927;49.366;8.530;2022-12-29T05:42:10;1.70;;;0.80;;
5801;SDS011;2927;49.366;8.530;2022-12-29T05:44:36;0.67;;;0.67;;
5801;SDS011;2927;49.366;8.530;2022-12-29T05:47:02;0.70;;;0.63;;
5801;SDS011;2927;49.366;8.530;2022-12-29T05:49:27;4.87;;;0.70;;
5801;SDS011;2927;49.366;8.530;2022-12-29T05:51:53;2.57;;;0.80;;
5801;SDS011;2927;49.366;8.530;2022-12-29T05:54:19;7.93;;;1.03;;
5801;SDS011;2927;49.366;8.530;2022-12-29T05:56:44;2.40;;;1.13;;
5801;SDS011;2927;49.366;8.530;2022-12-29T05:59:10;1.37;;;0.70;;
5801;SDS011;2927;49.366;8.530;2022-12-29T06:01:35;2.73;;;0.97;;
5801;SDS011;2927;49.366;8.530;2022-12-29T06:04:01;4.33;;;0.67;;
5801;SDS011;2927;49.366;8.530;2022-12-29T06:06:26;1.00;;;0.67;;
5801;SDS011;2927;49.366;8.530;2022-12-29T06:08:52;0.50;;;0.50;;
5801;SDS011;2927;49.366;8.530;2022-12-29T06:11:17;1.23;;;1.23;;
5801;SDS011;2927;49.366;8.530;2022-12-29T06:13:43;2.87;;;1.17;;
5801;SDS011;2927;49.366;8.530;2022-12-29T06:16:09;1.00;;;0.90;;
5801;SDS011;2927;49.366;8.530;2022-12-29T06:18:34;4.93;;;0.83;;
5801;SDS011;2927;49.366;8.530;2022-12-29T06:21:00;2.10;;;1.13;;
5801;SDS011;2927;49.366;8.530;2022-12-29T06:23:27;3.10;;;1.90;;
5801;SDS011;2927;49.366;8.530;2022-12-29T06:25:52;1.20;;;0.87;;
5801;SDS011;2927;49.366;8.530;2022-12-29T06:28:18;1.30;;;1.20;;
5801;SDS011;2927;49.366;8.530;2022-12-29T06:30:47;1.40;;;0.80;;
5801;SDS011;2927;49.366;8.530;2022-12-29T06:33:13;2.00;;;0.80;;
5801;SDS011;2927;49.366;8.530;2022-12-29T06:35:39;2.40;;;1.00;;
5801;SDS011;2927;49.366;8.530;2022-12-29T06:38:06;2.10;;;1.17;;
5801;SDS011;2927;49.366;8.530;2022-12-29T06:40:31;0.80;;;0.80;;
5801;SDS011;2927;49.366;8.530;2022-12-29T06:42:57;1.77;;;1.10;;
5801;SDS011;2927;49.366;8.530;2022-12-29T06:45:23;1.20;;;1.10;;
5801;SDS011;2927;49.366;8.530;2022-12-29T06:47:48;2.80;;;0.93;;
5801;SDS011;2927;49.366;8.530;2022-12-29T06:50:14;1.30;;;1.20;;
5801;SDS011;2927;49.366;8.530;2022-12-29T06:52:39;1.10;;;1.00;;
5801;SDS011;2927;49.366;8.530;2022-12-29T06:55:05;0.70;;;0.70;;
5801;SDS011;2927;49.366;8.530;2022-12-29T06:57:31;1.93;;;1.13;;
5801;SDS011;2927;49.366;8.530;2022-12-29T06:59:56;2.93;;;0.73;;
5801;SDS011;2927;49.366;8.530;2022-12-29T07:02:22;3.27;;;2.60;;
5801;SDS011;2927;49.366;8.530;2022-12-29T07:04:50;2.50;;;1.50;;
5801;SDS011;2927;49.366;8.530;2022-12-29T07:07:18;1.33;;;1.10;;
5801;SDS011;2927;49.366;8.530;2022-12-29T07:09:45;1.93;;;1.13;;
5801;SDS011;2927;49.366;8.530;2022-12-29T07:12:11;1.87;;;1.03;;
5801;SDS011;2927;49.366;8.530;2022-12-29T07:14:37;6.40;;;1.10;;
5801;SDS011;2927;49.366;8.530;2022-12-29T07:17:02;0.80;;;0.80;;
5801;SDS011;2927;49.366;8.530;2022-12-29T07:19:31;1.00;;;0.80;;
5801;SDS011;2927;49.366;8.530;2022-12-29T07:21:57;2.93;;;1.43;;
5801;SDS011;2927;49.366;8.530;2022-12-29T07:24:23;2.03;;;1.00;;
5801;SDS011;2927;49.366;8.530;2022-12-29T07:26:50;1.70;;;1.00;;
5801;SDS011;2927;49.366;8.530;2022-12-29T07:29:16;3.57;;;0.97;;
5801;SDS011;2927;49.366;8.530;2022-12-29T07:31:42;4.33;;;1.33;;
5801;SDS011;2927;49.366;8.530;2022-12-29T07:34:08;1.10;;;1.03;;
5801;SDS011;2927;49.366;8.530;2022-12-29T07:36:33;3.50;;;1.83;;
5801;SDS011;2927;49.366;8.530;2022-12-29T07:38:59;2.77;;;1.60;;
5801;SDS011;2927;49.366;8.530;2022-12-29T07:41:25;2.60;;;1.10;;
5801;SDS011;2927;49.366;8.530;2022-12-29T07:43:50;1.40;;;1.30;;
5801;SDS011;2927;49.366;8.530;2022-12-29T07:46:17;2.17;;;1.20;;
5801;SDS011;2927;49.366;8.530;2022-12-29T07:48:43;3.63;;;1.50;;
5801;SDS011;2927;49.366;8.530;2022-12-29T07:51:08;1.57;;;1.47;;
5801;SDS011;2927;49.366;8.530;2022-12-29T07:53:34;4.17;;;1.20;;
5801;SDS011;2927;49.366;8.530;2022-12-29T07:56:00;1.70;;;1.30;;
5801;SDS011;2927;49.366;8.530;2022-12-29T07:58:26;2.00;;;1.90;;
5801;SDS011;2927;49.366;8.530;2022-12-29T08:00:54;1.50;;;1.40;;
5801;SDS011;2927;49.366;8.530;2022-12-29T08:03:21;4.87;;;1.57;;
5801;SDS011;2927;49.366;8.530;2022-12-29T08:05:47;1.20;;;1.13;;
5801;SDS011;2927;49.366;8.530;2022-12-29T08:08:12;1.37;;;1.20;;
5801;SDS011;2927;49.366;8.530;2022-12-29T08:10:38;2.00;;;1.80;;
5801;SDS011;2927;49.366;8.530;2022-12-29T08:13:03;3.53;;;1.53;;
5801;SDS011;2927;49.366;8.530;2022-12-29T08:15:29;1.80;;;0.90;;
5801;SDS011;2927;49.366;8.530;2022-12-29T08:17:54;5.23;;;1.10;;
5801;SDS011;2927;49.366;8.530;2022-12-29T08:20:20;2.30;;;1.60;;
5801;SDS011;2927;49.366;8.530;2022-12-29T08:22:46;1.90;;;1.07;;
5801;SDS011;2927;49.366;8.530;2022-12-29T08:25:11;3.73;;;1.37;;
5801;SDS011;2927;49.366;8.530;2022-12-29T08:27:37;1.53;;;1.43;;
5801;SDS011;2927;49.366;8.530;2022-12-29T08:30:03;1.03;;;0.97;;
5801;SDS011;2927;49.366;8.530;2022-12-29T08:32:29;6.87;;;1.53;;
5801;SDS011;2927;49.366;8.530;2022-12-29T08:34:54;2.80;;;1.20;;
5801;SDS011;2927;49.366;8.530;2022-12-29T08:37:20;0.97;;;0.97;;
5801;SDS011;2927;49.366;8.530;2022-12-29T08:39:47;3.80;;;1.67;;
5801;SDS011;2927;49.366;8.530;2022-12-29T08:42:12;1.23;;;0.87;;
5801;SDS011;2927;49.366;8.530;2022-12-29T08:44:38;2.83;;;2.10;;
5801;SDS011;2927;49.366;8.530;2022-12-29T08:47:03;4.37;;;1.73;;
5801;SDS011;2927;49.366;8.530;2022-12-29T08:49:29;2.60;;;1.77;;
5801;SDS011;2927;49.366;8.530;2022-12-29T08:51:55;2.47;;;1.93;;
5801;SDS011;2927;49.366;8.530;2022-12-29T08:54:21;8.83;;;1.33;;
5801;SDS011;2927;49.366;8.530;2022-12-29T08:56:46;2.43;;;1.93;;
5801;SDS011;2927;49.366;8.530;2022-12-29T08:59:12;2.90;;;2.10;;
5801;SDS011;2927;49.366;8.530;2022-12-29T09:01:37;2.40;;;1.10;;
5801;SDS011;2927;49.366;8.530;2022-12-29T09:04:05;2.73;;;1.27;;
5801;SDS011;2927;49.366;8.530;2022-12-29T09:06:31;1.40;;;1.10;;
5801;SDS011;2927;49.366;8.530;2022-12-29T09:08:57;2.33;;;1.50;;
5801;SDS011;2927;49.366;8.530;2022-12-29T09:11:23;5.60;;;1.67;;
5801;SDS011;2927;49.366;8.530;2022-12-29T09:13:50;4.70;;;2.07;;
5801;SDS011;2927;49.366;8.530;2022-12-29T09:16:17;1.23;;;1.13;;
5801;SDS011;2927;49.366;8.530;2022-12-29T09:18:43;6.23;;;1.50;;
5801;SDS011;2927;49.366;8.530;2022-12-29T09:21:09;3.27;;;1.13;;
5801;SDS011;2927;49.366;8.530;2022-12-29T09:23:36;4.20;;;1.73;;
5801;SDS011;2927;49.366;8.530;2022-12-29T09:26:02;1.03;;;1.00;;
5801;SDS011;2927;49.366;8.530;2022-12-29T09:28:28;5.63;;;2.80;;
5801;SDS011;2927;49.366;8.530;2022-12-29T09:57:38;3.70;;;1.77;;
5801;SDS011;2927;49.366;8.530;2022-12-29T10:00:16;6.70;;;4.87;;
5801;SDS011;2927;49.366;8.530;2022-12-29T10:02:44;2.30;;;2.10;;
5801;SDS011;2927;49.366;8.530;2022-12-29T10:23:32;2.73;;;1.80;;
5801;SDS011;2927;49.366;8.530;2022-12-29T10:26:16;5.00;;;2.13;;
5801;SDS011;2927;49.366;8.530;2022-12-29T10:31:48;3.03;;;1.63;;
5801;SDS011;2927;49.366;8.530;2022-12-29T10:34:28;3.30;;;1.80;;
5801;SDS011;2927;49.366;8.530;2022-12-29T10:47:26;3.03;;;1.37;;
5801;SDS011;2927;49.366;8.530;2022-12-29T10:49:58;1.63;;;1.53;;
5801;SDS011;2927;49.366;8.530;2022-12-29T10:52:26;2.60;;;1.60;;
5801;SDS011;2927;49.366;8.530;2022-12-29T10:55:02;8.43;;;1.43;;
5801;SDS011;2927;49.366;8.530;2022-12-29T11:08:11;3.03;;;0.97;;
5801;SDS011;2927;49.366;8.530;2022-12-29T11:23:42;4.53;;;1.10;;
5801;SDS011;2927;49.366;8.530;2022-12-29T11:31:20;1.93;;;1.83;;
5801;SDS011;2927;49.366;8.530;2022-12-29T11:33:47;1.80;;;1.27;;
5801;SDS011;2927;49.366;8.530;2022-12-29T11:41:24;1.70;;;1.60;;
5801;SDS011;2927;49.366;8.530;2022-12-29T11:54:29;4.53;;;0.83;;
5801;SDS011;2927;49.366;8.530;2022-12-29T11:56:59;1.00;;;0.70;;
5801;SDS011;2927;49.366;8.530;2022-12-29T12:02:21;2.30;;;0.77;;
5801;SDS011;2927;49.366;8.530;2022-12-29T12:04:48;2.20;;;0.70;;
5801;SDS011;2927;49.366;8.530;2022-12-29T12:07:33;1.57;;;0.50;;
5801;SDS011;2927;49.366;8.530;2022-12-29T12:10:03;1.00;;;0.40;;
5801;SDS011;2927;49.366;8.530;2022-12-29T12:12:39;1.00;;;0.50;;
5801;SDS011;2927;49.366;8.530;2022-12-29T12:18:21;0.90;;;0.60;;
5801;SDS011;2927;49.366;8.530;2022-12-29T12:20:56;2.00;;;0.63;;
5801;SDS011;2927;49.366;8.530;2022-12-29T12:26:30;6.13;;;1.17;;
5801;SDS011;2927;49.366;8.530;2022-12-29T12:34:36;9.97;;;4.50;;
5801;SDS011;2927;49.366;8.530;2022-12-29T12:37:14;3.50;;;0.90;;
5801;SDS011;2927;49.366;8.530;2022-12-29T12:42:44;1.50;;;0.93;;
5801;SDS011;2927;49.366;8.530;2022-12-29T12:45:29;0.70;;;0.70;;
5801;SDS011;2927;49.366;8.530;2022-12-29T12:51:34;8.13;;;1.70;;
5801;SDS011;2927;49.366;8.530;2022-12-29T12:54:23;6.03;;;2.47;;
5801;SDS011;2927;49.366;8.530;2022-12-29T13:00:20;1.27;;;0.90;;
5801;SDS011;2927;49.366;8.530;2022-12-29T13:17:20;2.63;;;1.00;;
5801;SDS011;2927;49.366;8.530;2022-12-29T13:25:26;3.63;;;1.70;;
5801;SDS011;2927;49.366;8.530;2022-12-29T13:28:01;3.10;;;2.77;;
5801;SDS011;2927;49.366;8.530;2022-12-29T13:36:29;4.20;;;2.50;;
5801;SDS011;2927;49.366;8.530;2022-12-29T13:39:08;1.50;;;1.40;;
5801;SDS011;2927;49.366;8.530;2022-12-29T13:41:44;10.50;;;3.63;;
5801;SDS011;2927;49.366;8.530;2022-12-29T13:44:16;5.93;;;1.97;;
5801;SDS011;2927;49.366;8.530;2022-12-29T13:46:46;4.43;;;2.47;;
5801;SDS011;2927;49.366;8.530;2022-12-29T13:49:17;1.90;;;1.70;;
5801;SDS011;2927;49.366;8.530;2022-12-29T13:51:47;3.50;;;1.90;;
5801;SDS011;2927;49.366;8.530;2022-12-29T13:57:14;2.23;;;2.00;;
5801;SDS011;2927;49.366;8.530;2022-12-29T13:59:58;3.03;;;1.63;;
5801;SDS011;2927;49.366;8.530;2022-12-29T14:02:49;3.17;;;2.87;;
5801;SDS011;2927;49.366;8.530;2022-12-29T14:05:30;14.00;;;6.97;;
5801;SDS011;2927;49.366;8.530;2022-12-29T14:08:04;10.40;;;4.77;;
5801;SDS011;2927;49.366;8.530;2022-12-29T14:10:37;9.20;;;4.17;;
5801;SDS011;2927;49.366;8.530;2022-12-29T14:13:21;15.53;;;4.30;;
5801;SDS011;2927;49.366;8.530;2022-12-29T14:15:50;4.23;;;2.80;;
5801;SDS011;2927;49.366;8.530;2022-12-29T14:18:19;11.37;;;4.20;;
5801;SDS011;2927;49.366;8.530;2022-12-29T14:20:59;5.33;;;3.20;;
5801;SDS011;2927;49.366;8.530;2022-12-29T14:23:40;4.67;;;2.03;;
5801;SDS011;2927;49.366;8.530;2022-12-29T14:29:22;21.27;;;10.23;;
5801;SDS011;2927;49.366;8.530;2022-12-29T14:33:11;20.57;;;8.30;;
5801;SDS011;2927;49.366;8.530;2022-12-29T14:35:36;5.07;;;3.00;;
5801;SDS011;2927;49.366;8.530;2022-12-29T14:38:07;4.07;;;2.50;;
5801;SDS011;2927;49.366;8.530;2022-12-29T14:40:39;17.73;;;5.90;;
5801;SDS011;2927;49.366;8.530;2022-12-29T14:43:05;1.40;;;0.73;;
5801;SDS011;2927;49.366;8.530;2022-12-29T14:45:39;6.57;;;2.10;;
5801;SDS011;2927;49.366;8.530;2022-12-29T14:57:07;2.30;;;1.50;;
5801;SDS011;2927;49.366;8.530;2022-12-29T15:02:26;11.17;;;3.90;;
5801;SDS011;2927;49.366;8.530;2022-12-29T15:05:00;4.47;;;2.13;;
5801;SDS011;2927;49.366;8.530;2022-12-29T15:07:27;2.40;;;2.00;;
5801;SDS011;2927;49.366;8.530;2022-12-29T15:09:56;3.10;;;2.70;;
5801;SDS011;2927;49.366;8.530;2022-12-29T15:12:39;9.80;;;1.80;;
5801;SDS011;2927;49.366;8.530;2022-12-29T15:15:17;7.30;;;3.13;;
5801;SDS011;2927;49.366;8.530;2022-12-29T15:17:54;5.33;;;2.70;;
5801;SDS011;2927;49.366;8.530;2022-12-29T15:20:22;5.40;;;2.97;;
5801;SDS011;2927;49.366;8.530;2022-12-29T15:22:48;5.03;;;2.37;;
5801;SDS011;2927;49.366;8.530;2022-12-29T15:25:22;3.80;;;2.30;;
5801;SDS011;2927;49.366;8.530;2022-12-29T15:27:52;4.67;;;2.03;;
5801;SDS011;2927;49.366;8.530;2022-12-29T15:30:23;3.90;;;1.90;;
5801;SDS011;2927;49.366;8.530;2022-12-29T15:32:49;1.40;;;1.27;;
5801;SDS011;2927;49.366;8.530;2022-12-29T15:35:25;2.80;;;1.90;;
5801;SDS011;2927;49.366;8.530;2022-12-29T15:37:51;1.37;;;1.17;;
5801;SDS011;2927;49.366;8.530;2022-12-29T15:40:27;2.17;;;1.10;;
5801;SDS011;2927;49.366;8.530;2022-12-29T15:43:07;3.53;;;1.70;;
5801;SDS011;2927;49.366;8.530;2022-12-29T15:45:49;3.27;;;2.23;;
5801;SDS011;2927;49.366;8.530;2022-12-29T15:48:17;5.47;;;2.60;;
5801;SDS011;2927;49.366;8.530;2022-12-29T15:50:48;2.93;;;2.53;;
5801;SDS011;2927;49.366;8.530;2022-12-29T15:55:57;4.90;;;2.43;;
5801;SDS011;2927;49.366;8.530;2022-12-29T15:58:29;7.20;;;3.30;;
5801;SDS011;2927;49.366;8.530;2022-12-29T16:00:59;6.43;;;3.13;;
5801;SDS011;2927;49.366;8.530;2022-12-29T16:03:27;7.00;;;3.40;;
5801;SDS011;2927;49.366;8.530;2022-12-29T16:06:08;9.10;;;3.50;;
5801;SDS011;2927;49.366;8.530;2022-12-29T16:08:55;6.80;;;4.33;;
5801;SDS011;2927;49.366;8.530;2022-12-29T16:11:44;5.53;;;4.00;;
5801;SDS011;2927;49.366;8.530;2022-12-29T16:14:37;9.73;;;5.83;;
5801;SDS011;2927;49.366;8.530;2022-12-29T16:17:06;11.70;;;5.80;;
5801;SDS011;2927;49.366;8.530;2022-12-29T16:19:37;7.70;;;4.60;;
5801;SDS011;2927;49.366;8.530;2022-12-29T16:22:09;7.93;;;5.73;;
5801;SDS011;2927;49.366;8.530;2022-12-29T16:24:38;8.13;;;7.03;;
5801;SDS011;2927;49.366;8.530;2022-12-29T16:29:45;11.03;;;5.83;;
5801;SDS011;2927;49.366;8.530;2022-12-29T16:32:25;12.60;;;5.77;;
5801;SDS011;2927;49.366;8.530;2022-12-29T16:35:02;9.37;;;5.60;;
5801;SDS011;2927;49.366;8.530;2022-12-29T16:37:35;11.53;;;7.00;;
5801;SDS011;2927;49.366;8.530;2022-12-29T16:42:47;19.93;;;8.87;;
5801;SDS011;2927;49.366;8.530;2022-12-29T16:47:48;16.63;;;7.67;;
5801;SDS011;2927;49.366;8.530;2022-12-29T16:50:30;13.50;;;7.33;;
5801;SDS011;2927;49.366;8.530;2022-12-29T16:52:57;42.77;;;27.27;;
5801;SDS011;2927;49.366;8.530;2022-12-29T16:55:23;23.40;;;10.47;;
5801;SDS011;2927;49.366;8.530;2022-12-29T16:57:49;12.47;;;7.90;;
5801;SDS011;2927;49.366;8.530;2022-12-29T17:00:26;12.60;;;6.90;;
5801;SDS011;2927;49.366;8.530;2022-12-29T17:02:54;12.60;;;5.40;;
5801;SDS011;2927;49.366;8.530;2022-12-29T17:05:22;8.70;;;4.43;;
5801;SDS011;2927;49.366;8.530;2022-12-29T17:07:48;16.50;;;6.33;;
5801;SDS011;2927;49.366;8.530;2022-12-29T17:10:13;11.40;;;5.70;;
5801;SDS011;2927;49.366;8.530;2022-12-29T17:12:39;9.20;;;5.07;;
5801;SDS011;2927;49.366;8.530;2022-12-29T17:17:39;10.13;;;6.00;;
5801;SDS011;2927;49.366;8.530;2022-12-29T17:20:17;8.50;;;5.50;;
5801;SDS011;2927;49.366;8.530;2022-12-29T17:22:48;26.23;;;14.00;;
5801;SDS011;2927;49.366;8.530;2022-12-29T17:25:23;19.17;;;10.43;;
5801;SDS011;2927;49.366;8.530;2022-12-29T17:27:55;19.40;;;8.77;;
5801;SDS011;2927;49.366;8.530;2022-12-29T17:30:32;13.13;;;7.00;;
5801;SDS011;2927;49.366;8.530;2022-12-29T17:33:00;6.17;;;3.63;;
5801;SDS011;2927;49.366;8.530;2022-12-29T17:35:33;8.87;;;3.60;;
5801;SDS011;2927;49.366;8.530;2022-12-29T17:37:58;27.13;;;10.80;;
5801;SDS011;2927;49.366;8.530;2022-12-29T17:40:28;10.57;;;5.63;;
5801;SDS011;2927;49.366;8.530;2022-12-29T17:42:56;27.00;;;10.83;;
5801;SDS011;2927;49.366;8.530;2022-12-29T17:45:27;4.10;;;3.10;;
5801;SDS011;2927;49.366;8.530;2022-12-29T17:47:54;18.07;;;9.33;;
5801;SDS011;2927;49.366;8.530;2022-12-29T17:50:22;9.47;;;4.60;;
5801;SDS011;2927;49.366;8.530;2022-12-29T17:52:53;8.07;;;3.60;;
5801;SDS011;2927;49.366;8.530;2022-12-29T17:55:21;7.70;;;4.10;;
5801;SDS011;2927;49.366;8.530;2022-12-29T17:57:48;46.77;;;19.33;;
5801;SDS011;2927;49.366;8.530;2022-12-29T18:00:14;13.80;;;5.80;;
5801;SDS011;2927;49.366;8.530;2022-12-29T18:02:45;12.70;;;4.50;;
5801;SDS011;2927;49.366;8.530;2022-12-29T18:05:16;13.50;;;5.70;;
5801;SDS011;2927;49.366;8.530;2022-12-29T18:07:48;7.70;;;4.40;;
5801;SDS011;2927;49.366;8.530;2022-12-29T18:10:15;12.50;;;4.50;;
5801;SDS011;2927;49.366;8.530;2022-12-29T18:12:42;27.57;;;9.70;;
5801;SDS011;2927;49.366;8.530;2022-12-29T18:15:15;8.70;;;4.00;;
5801;SDS011;2927;49.366;8.530;2022-12-29T18:17:57;7.30;;;2.40;;
5801;SDS011;2927;49.366;8.530;2022-12-29T18:20:27;14.00;;;6.33;;
5801;SDS011;2927;49.366;8.530;2022-12-29T18:22:54;14.00;;;5.90;;
5801;SDS011;2927;49.366;8.530;2022-12-29T18:25:21;30.37;;;13.20;;
5801;SDS011;2927;49.366;8.530;2022-12-29T18:27:49;32.70;;;11.50;;
5801;SDS011;2927;49.366;8.530;2022-12-29T18:30:15;59.37;;;21.10;;
5801;SDS011;2927;49.366;8.530;2022-12-29T18:32:41;19.77;;;6.90;;
5801;SDS011;2927;49.366;8.530;2022-12-29T18:38:11;18.67;;;5.90;;
5801;SDS011;2927;49.366;8.530;2022-12-29T18:40:36;47.90;;;20.60;;
5801;SDS011;2927;49.366;8.530;2022-12-29T18:43:02;49.20;;;20.53;;
5801;SDS011;2927;49.366;8.530;2022-12-29T18:45:29;33.77;;;13.63;;
5801;SDS011;2927;49.366;8.530;2022-12-29T18:47:56;7.00;;;3.70;;
5801;SDS011;2927;49.366;8.530;2022-12-29T18:50:25;28.93;;;11.70;;
5801;SDS011;2927;49.366;8.530;2022-12-29T18:52:50;11.53;;;3.80;;
5801;SDS011;2927;49.366;8.530;2022-12-29T18:55:23;17.30;;;7.20;;
5801;SDS011;2927;49.366;8.530;2022-12-29T18:57:51;10.03;;;4.67;;
5801;SDS011;2927;49.366;8.530;2022-12-29T19:00:17;8.67;;;4.03;;
5801;SDS011;2927;49.366;8.530;2022-12-29T19:02:44;18.17;;;10.20;;
5801;SDS011;2927;49.366;8.530;2022-12-29T19:05:27;6.77;;;4.57;;
5801;SDS011;2927;49.366;8.530;2022-12-29T19:07:54;28.90;;;13.17;;
5801;SDS011;2927;49.366;8.530;2022-12-29T19:10:20;18.50;;;6.07;;
5801;SDS011;2927;49.366;8.530;2022-12-29T19:12:48;15.57;;;5.53;;
5801;SDS011;2927;49.366;8.530;2022-12-29T19:15:24;6.37;;;4.13;;
5801;SDS011;2927;49.366;8.530;2022-12-29T19:17:56;10.23;;;4.37;;
5801;SDS011;2927;49.366;8.530;2022-12-29T19:23:18;11.80;;;4.73;;
5801;SDS011;2927;49.366;8.530;2022-12-29T19:25:46;17.67;;;6.50;;
5801;SDS011;2927;49.366;8.530;2022-12-29T19:28:19;12.97;;;3.53;;
5801;SDS011;2927;49.366;8.530;2022-12-29T19:30:49;5.93;;;3.27;;
5801;SDS011;2927;49.366;8.530;2022-12-29T19:33:16;10.00;;;3.37;;